sensor_id;sensor_type;location;lat;lon;timestamp;P1;durP1;ratioP1;P2;durP2;ratioP2
20535;SDS011;10426;49.420;8.390;2024-03-02T00:01:43;11.07;;;9.98;;
20535;SDS011;10426;49.420;8.390;2024-03-02T00:04:10;10.80;;;9.80;;
20535;SDS011;10426;49.420;8.390;2024-03-02T00:06:36;10.52;;;9.48;;
20535;SDS011;10426;49.420;8.390;2024-03-02T00:09:03;11.43;;;10.18;;
20535;SDS011;10426;49.420;8.390;2024-03-02T00:11:31;11.65;;;10.45;;
20535;SDS011;10426;49.420;8.390;2024-03-02T00:14:00;11.90;;;10.70;;
20535;SDS011;10426;49.420;8.390;2024-03-02T00:16:29;11.50;;;10.40;;
20535;SDS011;10426;49.420;8.390;2024-03-02T00:18:56;11.75;;;10.55;;
20535;SDS011;10426;49.420;8.390;2024-03-02T00:21:24;12.38;;;10.75;;
20535;SDS011;10426;49.420;8.390;2024-03-02T00:23:53;12.40;;;11.20;;
20535;SDS011;10426;49.420;8.390;2024-03-02T00:26:20;11.13;;;10.07;;
20535;SDS011;10426;49.420;8.390;2024-03-02T00:28:48;11.32;;;10.23;;
20535;SDS011;10426;49.420;8.390;2024-03-02T00:31:15;11.25;;;10.15;;
20535;SDS011;10426;49.420;8.390;2024-03-02T00:33:45;11.77;;;10.57;;
20535;SDS011;10426;49.420;8.390;2024-03-02T00:36:12;12.10;;;10.90;;
20535;SDS011;10426;49.420;8.390;2024-03-02T00:38:42;12.73;;;10.93;;
20535;SDS011;10426;49.420;8.390;2024-03-02T00:41:15;11.95;;;10.75;;
20535;SDS011;10426;49.420;8.390;2024-03-02T00:43:42;12.23;;;11.02;;
20535;SDS011;10426;49.420;8.390;2024-03-02T00:46:12;12.73;;;11.02;;
20535;SDS011;10426;49.420;8.390;2024-03-02T00:48:47;12.05;;;10.85;;
20535;SDS011;10426;49.420;8.390;2024-03-02T00:51:14;11.70;;;10.60;;
20535;SDS011;10426;49.420;8.390;2024-03-02T00:53:41;12.48;;;11.18;;
20535;SDS011;10426;49.420;8.390;2024-03-02T00:56:08;12.52;;;11.00;;
20535;SDS011;10426;49.420;8.390;2024-03-02T00:58:35;11.80;;;10.60;;
20535;SDS011;10426;49.420;8.390;2024-03-02T01:01:02;13.20;;;10.55;;
20535;SDS011;10426;49.420;8.390;2024-03-02T01:03:30;11.68;;;10.40;;
20535;SDS011;10426;49.420;8.390;2024-03-02T01:05:57;12.48;;;10.88;;
20535;SDS011;10426;49.420;8.390;2024-03-02T01:08:24;11.73;;;10.52;;
20535;SDS011;10426;49.420;8.390;2024-03-02T01:10:51;14.00;;;10.68;;
20535;SDS011;10426;49.420;8.390;2024-03-02T01:13:18;11.57;;;10.38;;
20535;SDS011;10426;49.420;8.390;2024-03-02T01:15:44;11.80;;;10.70;;
20535;SDS011;10426;49.420;8.390;2024-03-02T01:18:11;12.52;;;11.10;;
20535;SDS011;10426;49.420;8.390;2024-03-02T01:20:39;13.40;;;10.67;;
20535;SDS011;10426;49.420;8.390;2024-03-02T01:23:05;12.57;;;11.30;;
20535;SDS011;10426;49.420;8.390;2024-03-02T01:25:32;12.77;;;11.38;;
20535;SDS011;10426;49.420;8.390;2024-03-02T01:27:59;12.93;;;11.32;;
20535;SDS011;10426;49.420;8.390;2024-03-02T01:30:25;12.60;;;11.32;;
20535;SDS011;10426;49.420;8.390;2024-03-02T01:32:52;12.10;;;10.80;;
20535;SDS011;10426;49.420;8.390;2024-03-02T01:35:18;11.50;;;10.40;;
20535;SDS011;10426;49.420;8.390;2024-03-02T01:37:46;11.80;;;10.65;;
20535;SDS011;10426;49.420;8.390;2024-03-02T01:40:13;11.70;;;10.43;;
20535;SDS011;10426;49.420;8.390;2024-03-02T01:42:39;13.70;;;11.38;;
20535;SDS011;10426;49.420;8.390;2024-03-02T01:45:06;12.00;;;10.70;;
20535;SDS011;10426;49.420;8.390;2024-03-02T01:47:32;12.50;;;10.98;;
20535;SDS011;10426;49.420;8.390;2024-03-02T01:49:59;11.98;;;10.77;;
20535;SDS011;10426;49.420;8.390;2024-03-02T01:52:26;11.77;;;10.57;;
20535;SDS011;10426;49.420;8.390;2024-03-02T01:54:54;11.85;;;10.60;;
20535;SDS011;10426;49.420;8.390;2024-03-02T01:57:20;12.13;;;10.65;;
20535;SDS011;10426;49.420;8.390;2024-03-02T01:59:47;11.23;;;10.13;;
20535;SDS011;10426;49.420;8.390;2024-03-02T02:02:14;12.07;;;10.35;;
20535;SDS011;10426;49.420;8.390;2024-03-02T02:04:40;11.13;;;9.93;;
20535;SDS011;10426;49.420;8.390;2024-03-02T02:07:07;12.60;;;10.60;;
20535;SDS011;10426;49.420;8.390;2024-03-02T02:09:35;11.43;;;10.23;;
20535;SDS011;10426;49.420;8.390;2024-03-02T02:12:04;11.88;;;10.23;;
20535;SDS011;10426;49.420;8.390;2024-03-02T02:14:32;11.30;;;10.20;;
20535;SDS011;10426;49.420;8.390;2024-03-02T02:16:58;10.85;;;9.80;;
20535;SDS011;10426;49.420;8.390;2024-03-02T02:19:25;10.88;;;9.77;;
20535;SDS011;10426;49.420;8.390;2024-03-02T02:21:53;10.60;;;9.60;;
20535;SDS011;10426;49.420;8.390;2024-03-02T02:24:19;11.10;;;9.90;;
20535;SDS011;10426;49.420;8.390;2024-03-02T02:26:46;11.77;;;10.02;;
20535;SDS011;10426;49.420;8.390;2024-03-02T02:29:13;11.20;;;10.00;;
20535;SDS011;10426;49.420;8.390;2024-03-02T02:31:40;11.32;;;10.15;;
20535;SDS011;10426;49.420;8.390;2024-03-02T02:34:06;11.30;;;10.13;;
20535;SDS011;10426;49.420;8.390;2024-03-02T02:36:34;11.45;;;9.73;;
20535;SDS011;10426;49.420;8.390;2024-03-02T02:39:05;11.25;;;10.13;;
20535;SDS011;10426;49.420;8.390;2024-03-02T02:41:33;12.25;;;10.10;;
20535;SDS011;10426;49.420;8.390;2024-03-02T02:43:59;12.17;;;10.10;;
20535;SDS011;10426;49.420;8.390;2024-03-02T02:46:26;11.35;;;10.25;;
20535;SDS011;10426;49.420;8.390;2024-03-02T02:48:53;12.32;;;10.00;;
20535;SDS011;10426;49.420;8.390;2024-03-02T02:51:19;10.85;;;9.73;;
20535;SDS011;10426;49.420;8.390;2024-03-02T02:53:46;11.85;;;9.82;;
20535;SDS011;10426;49.420;8.390;2024-03-02T02:56:14;11.55;;;10.45;;
20535;SDS011;10426;49.420;8.390;2024-03-02T02:58:40;11.43;;;10.23;;
20535;SDS011;10426;49.420;8.390;2024-03-02T03:01:07;11.20;;;10.10;;
20535;SDS011;10426;49.420;8.390;2024-03-02T03:03:34;11.52;;;10.43;;
20535;SDS011;10426;49.420;8.390;2024-03-02T03:06:00;11.50;;;10.40;;
20535;SDS011;10426;49.420;8.390;2024-03-02T03:08:27;11.30;;;10.20;;
20535;SDS011;10426;49.420;8.390;2024-03-02T03:10:54;11.40;;;10.20;;
20535;SDS011;10426;49.420;8.390;2024-03-02T03:13:22;11.10;;;10.10;;
20535;SDS011;10426;49.420;8.390;2024-03-02T03:15:49;11.83;;;10.63;;
20535;SDS011;10426;49.420;8.390;2024-03-02T03:18:15;11.40;;;10.30;;
20535;SDS011;10426;49.420;8.390;2024-03-02T03:20:42;11.57;;;10.38;;
20535;SDS011;10426;49.420;8.390;2024-03-02T03:26:12;11.25;;;10.15;;
20535;SDS011;10426;49.420;8.390;2024-03-02T03:28:40;12.13;;;10.18;;
20535;SDS011;10426;49.420;8.390;2024-03-02T03:31:06;10.63;;;9.63;;
20535;SDS011;10426;49.420;8.390;2024-03-02T03:33:33;11.38;;;10.18;;
20535;SDS011;10426;49.420;8.390;2024-03-02T03:36:00;10.90;;;9.82;;
20535;SDS011;10426;49.420;8.390;2024-03-02T03:38:27;11.15;;;10.05;;
20535;SDS011;10426;49.420;8.390;2024-03-02T03:40:54;11.18;;;9.98;;
20535;SDS011;10426;49.420;8.390;2024-03-02T03:43:20;10.75;;;9.65;;
20535;SDS011;10426;49.420;8.390;2024-03-02T03:45:48;10.52;;;9.43;;
20535;SDS011;10426;49.420;8.390;2024-03-02T03:48:15;10.60;;;9.50;;
20535;SDS011;10426;49.420;8.390;2024-03-02T03:50:41;10.10;;;9.13;;
20535;SDS011;10426;49.420;8.390;2024-03-02T03:53:08;10.85;;;9.85;;
20535;SDS011;10426;49.420;8.390;2024-03-02T03:55:35;10.77;;;9.68;;
20535;SDS011;10426;49.420;8.390;2024-03-02T03:58:01;10.80;;;9.70;;
20535;SDS011;10426;49.420;8.390;2024-03-02T04:00:28;10.55;;;9.50;;
20535;SDS011;10426;49.420;8.390;2024-03-02T04:02:56;10.68;;;9.57;;
20535;SDS011;10426;49.420;8.390;2024-03-02T04:05:22;11.05;;;9.95;;
20535;SDS011;10426;49.420;8.390;2024-03-02T04:07:49;10.80;;;9.77;;
20535;SDS011;10426;49.420;8.390;2024-03-02T04:10:16;10.80;;;9.70;;
20535;SDS011;10426;49.420;8.390;2024-03-02T04:12:42;11.02;;;9.75;;
20535;SDS011;10426;49.420;8.390;2024-03-02T04:15:09;11.10;;;10.00;;
20535;SDS011;10426;49.420;8.390;2024-03-02T04:17:36;10.90;;;9.90;;
20535;SDS011;10426;49.420;8.390;2024-03-02T04:20:05;10.70;;;9.65;;
20535;SDS011;10426;49.420;8.390;2024-03-02T04:22:32;11.15;;;10.05;;
20535;SDS011;10426;49.420;8.390;2024-03-02T04:24:59;10.93;;;9.93;;
20535;SDS011;10426;49.420;8.390;2024-03-02T04:27:25;11.15;;;10.05;;
20535;SDS011;10426;49.420;8.390;2024-03-02T04:29:52;10.57;;;9.45;;
20535;SDS011;10426;49.420;8.390;2024-03-02T04:32:19;10.40;;;9.38;;
20535;SDS011;10426;49.420;8.390;2024-03-02T04:34:46;11.13;;;9.27;;
20535;SDS011;10426;49.420;8.390;2024-03-02T04:37:14;10.30;;;9.30;;
20535;SDS011;10426;49.420;8.390;2024-03-02T04:39:40;10.07;;;9.07;;
20535;SDS011;10426;49.420;8.390;2024-03-02T04:42:07;9.88;;;8.60;;
20535;SDS011;10426;49.420;8.390;2024-03-02T04:44:33;10.27;;;8.70;;
20535;SDS011;10426;49.420;8.390;2024-03-02T04:47:00;10.35;;;9.20;;
20535;SDS011;10426;49.420;8.390;2024-03-02T04:49:27;9.60;;;8.70;;
20535;SDS011;10426;49.420;8.390;2024-03-02T04:51:53;10.05;;;9.07;;
20535;SDS011;10426;49.420;8.390;2024-03-02T04:54:21;9.63;;;8.65;;
20535;SDS011;10426;49.420;8.390;2024-03-02T04:56:48;9.70;;;8.70;;
20535;SDS011;10426;49.420;8.390;2024-03-02T04:59:15;9.75;;;8.70;;
20535;SDS011;10426;49.420;8.390;2024-03-02T05:01:43;9.67;;;8.70;;
20535;SDS011;10426;49.420;8.390;2024-03-02T05:04:10;9.48;;;8.52;;
20535;SDS011;10426;49.420;8.390;2024-03-02T05:06:37;9.75;;;8.75;;
20535;SDS011;10426;49.420;8.390;2024-03-02T05:09:04;9.70;;;8.70;;
20535;SDS011;10426;49.420;8.390;2024-03-02T05:11:32;9.63;;;8.70;;
20535;SDS011;10426;49.420;8.390;2024-03-02T05:14:18;10.10;;;8.73;;
20535;SDS011;10426;49.420;8.390;2024-03-02T05:16:45;9.88;;;8.88;;
20535;SDS011;10426;49.420;8.390;2024-03-02T05:19:12;10.13;;;8.80;;
20535;SDS011;10426;49.420;8.390;2024-03-02T05:21:38;9.60;;;8.60;;
20535;SDS011;10426;49.420;8.390;2024-03-02T05:24:05;9.40;;;8.50;;
20535;SDS011;10426;49.420;8.390;2024-03-02T05:26:33;9.55;;;8.65;;
20535;SDS011;10426;49.420;8.390;2024-03-02T05:28:59;9.60;;;8.70;;
20535;SDS011;10426;49.420;8.390;2024-03-02T05:31:26;9.80;;;8.90;;
20535;SDS011;10426;49.420;8.390;2024-03-02T05:33:53;10.43;;;9.02;;
20535;SDS011;10426;49.420;8.390;2024-03-02T05:36:19;9.60;;;8.65;;
20535;SDS011;10426;49.420;8.390;2024-03-02T05:38:46;10.13;;;9.10;;
20535;SDS011;10426;49.420;8.390;2024-03-02T05:41:13;9.87;;;8.87;;
20535;SDS011;10426;49.420;8.390;2024-03-02T05:43:40;9.88;;;8.95;;
20535;SDS011;10426;49.420;8.390;2024-03-02T05:46:07;10.30;;;9.30;;
20535;SDS011;10426;49.420;8.390;2024-03-02T05:48:34;10.45;;;9.40;;
20535;SDS011;10426;49.420;8.390;2024-03-02T05:51:00;10.95;;;9.85;;
20535;SDS011;10426;49.420;8.390;2024-03-02T05:53:27;11.03;;;9.97;;
20535;SDS011;10426;49.420;8.390;2024-03-02T05:55:53;10.35;;;9.30;;
20535;SDS011;10426;49.420;8.390;2024-03-02T05:58:21;11.13;;;10.02;;
20535;SDS011;10426;49.420;8.390;2024-03-02T06:00:59;11.75;;;10.52;;
20535;SDS011;10426;49.420;8.390;2024-03-02T06:03:25;12.70;;;11.50;;
20535;SDS011;10426;49.420;8.390;2024-03-02T06:05:54;14.13;;;12.63;;
20535;SDS011;10426;49.420;8.390;2024-03-02T06:08:20;12.63;;;11.30;;
20535;SDS011;10426;49.420;8.390;2024-03-02T06:10:47;10.77;;;9.55;;
20535;SDS011;10426;49.420;8.390;2024-03-02T06:13:14;10.52;;;9.52;;
20535;SDS011;10426;49.420;8.390;2024-03-02T06:15:40;10.60;;;9.60;;
20535;SDS011;10426;49.420;8.390;2024-03-02T06:18:09;11.60;;;10.35;;
20535;SDS011;10426;49.420;8.390;2024-03-02T06:20:36;10.93;;;9.93;;
20535;SDS011;10426;49.420;8.390;2024-03-02T06:23:02;11.07;;;9.98;;
20535;SDS011;10426;49.420;8.390;2024-03-02T06:25:29;10.73;;;9.63;;
20535;SDS011;10426;49.420;8.390;2024-03-02T06:27:56;10.32;;;9.32;;
20535;SDS011;10426;49.420;8.390;2024-03-02T06:30:22;10.48;;;9.48;;
20535;SDS011;10426;49.420;8.390;2024-03-02T06:32:49;10.30;;;9.23;;
20535;SDS011;10426;49.420;8.390;2024-03-02T06:35:17;10.25;;;9.25;;
20535;SDS011;10426;49.420;8.390;2024-03-02T06:37:43;15.43;;;11.85;;
20535;SDS011;10426;49.420;8.390;2024-03-02T06:40:09;13.13;;;10.30;;
20535;SDS011;10426;49.420;8.390;2024-03-02T06:42:36;11.18;;;9.93;;
20535;SDS011;10426;49.420;8.390;2024-03-02T06:45:03;11.38;;;10.27;;
20535;SDS011;10426;49.420;8.390;2024-03-02T06:47:29;11.07;;;10.02;;
20535;SDS011;10426;49.420;8.390;2024-03-02T06:49:56;11.32;;;9.93;;
20535;SDS011;10426;49.420;8.390;2024-03-02T06:52:25;11.20;;;10.10;;
20535;SDS011;10426;49.420;8.390;2024-03-02T06:54:52;11.90;;;10.80;;
20535;SDS011;10426;49.420;8.390;2024-03-02T06:57:18;12.73;;;11.45;;
20535;SDS011;10426;49.420;8.390;2024-03-02T06:59:46;12.57;;;11.38;;
20535;SDS011;10426;49.420;8.390;2024-03-02T07:02:12;12.20;;;10.93;;
20535;SDS011;10426;49.420;8.390;2024-03-02T07:04:39;12.70;;;11.43;;
20535;SDS011;10426;49.420;8.390;2024-03-02T07:07:06;11.47;;;10.33;;
20535;SDS011;10426;49.420;8.390;2024-03-02T07:09:34;12.40;;;10.70;;
20535;SDS011;10426;49.420;8.390;2024-03-02T07:12:00;11.80;;;10.60;;
20535;SDS011;10426;49.420;8.390;2024-03-02T07:14:27;11.50;;;10.40;;
20535;SDS011;10426;49.420;8.390;2024-03-02T07:17:20;11.75;;;10.65;;
20535;SDS011;10426;49.420;8.390;2024-03-02T07:19:47;11.93;;;10.73;;
20535;SDS011;10426;49.420;8.390;2024-03-02T07:22:14;11.55;;;10.38;;
20535;SDS011;10426;49.420;8.390;2024-03-02T07:24:42;13.05;;;10.15;;
20535;SDS011;10426;49.420;8.390;2024-03-02T07:27:08;11.27;;;10.18;;
20535;SDS011;10426;49.420;8.390;2024-03-02T07:29:35;10.82;;;9.73;;
20535;SDS011;10426;49.420;8.390;2024-03-02T07:32:02;11.18;;;10.00;;
20535;SDS011;10426;49.420;8.390;2024-03-02T07:34:29;10.75;;;9.65;;
20535;SDS011;10426;49.420;8.390;2024-03-02T07:36:55;10.98;;;9.88;;
20535;SDS011;10426;49.420;8.390;2024-03-02T07:39:22;10.32;;;9.43;;
20535;SDS011;10426;49.420;8.390;2024-03-02T07:41:50;10.47;;;9.53;;
20535;SDS011;10426;49.420;8.390;2024-03-02T07:44:17;10.50;;;9.45;;
20535;SDS011;10426;49.420;8.390;2024-03-02T07:46:44;10.77;;;9.77;;
20535;SDS011;10426;49.420;8.390;2024-03-02T07:49:12;10.48;;;9.48;;
20535;SDS011;10426;49.420;8.390;2024-03-02T07:51:38;10.23;;;9.32;;
20535;SDS011;10426;49.420;8.390;2024-03-02T07:54:05;9.65;;;8.75;;
20535;SDS011;10426;49.420;8.390;2024-03-02T07:56:31;10.60;;;9.68;;
20535;SDS011;10426;49.420;8.390;2024-03-02T07:58:59;10.20;;;9.20;;
20535;SDS011;10426;49.420;8.390;2024-03-02T08:01:27;10.82;;;9.77;;
20535;SDS011;10426;49.420;8.390;2024-03-02T08:03:55;9.80;;;8.90;;
20535;SDS011;10426;49.420;8.390;2024-03-02T08:06:23;10.30;;;9.30;;
20535;SDS011;10426;49.420;8.390;2024-03-02T08:08:53;10.48;;;9.40;;
20535;SDS011;10426;49.420;8.390;2024-03-02T08:11:19;10.77;;;9.68;;
20535;SDS011;10426;49.420;8.390;2024-03-02T08:13:46;10.70;;;9.57;;
20535;SDS011;10426;49.420;8.390;2024-03-02T08:16:14;10.75;;;9.63;;
20535;SDS011;10426;49.420;8.390;2024-03-02T08:18:40;10.50;;;9.40;;
20535;SDS011;10426;49.420;8.390;2024-03-02T08:21:07;10.15;;;9.25;;
20535;SDS011;10426;49.420;8.390;2024-03-02T08:23:34;9.27;;;8.48;;
20535;SDS011;10426;49.420;8.390;2024-03-02T08:26:01;10.05;;;9.15;;
20535;SDS011;10426;49.420;8.390;2024-03-02T08:28:28;10.00;;;9.00;;
20535;SDS011;10426;49.420;8.390;2024-03-02T08:30:55;9.40;;;8.60;;
20535;SDS011;10426;49.420;8.390;2024-03-02T08:33:23;9.88;;;8.82;;
20535;SDS011;10426;49.420;8.390;2024-03-02T08:35:50;9.73;;;8.82;;
20535;SDS011;10426;49.420;8.390;2024-03-02T08:38:16;10.07;;;9.07;;
20535;SDS011;10426;49.420;8.390;2024-03-02T08:40:43;9.27;;;8.32;;
20535;SDS011;10426;49.420;8.390;2024-03-02T08:43:10;9.23;;;8.32;;
20535;SDS011;10426;49.420;8.390;2024-03-02T08:45:37;10.95;;;8.52;;
20535;SDS011;10426;49.420;8.390;2024-03-02T08:48:05;12.65;;;8.20;;
20535;SDS011;10426;49.420;8.390;2024-03-02T08:50:33;8.98;;;8.07;;
20535;SDS011;10426;49.420;8.390;2024-03-02T08:53:00;8.77;;;7.97;;
20535;SDS011;10426;49.420;8.390;2024-03-02T08:55:27;8.70;;;7.90;;
20535;SDS011;10426;49.420;8.390;2024-03-02T08:57:54;8.18;;;7.40;;
20535;SDS011;10426;49.420;8.390;2024-03-02T09:00:21;7.65;;;6.95;;
20535;SDS011;10426;49.420;8.390;2024-03-02T09:02:48;7.47;;;6.80;;
20535;SDS011;10426;49.420;8.390;2024-03-02T09:05:15;8.00;;;7.30;;
20535;SDS011;10426;49.420;8.390;2024-03-02T09:07:43;7.60;;;6.90;;
20535;SDS011;10426;49.420;8.390;2024-03-02T09:10:10;7.47;;;6.78;;
20535;SDS011;10426;49.420;8.390;2024-03-02T09:12:36;6.95;;;6.25;;
20535;SDS011;10426;49.420;8.390;2024-03-02T09:15:04;7.25;;;6.55;;
20535;SDS011;10426;49.420;8.390;2024-03-02T09:17:31;7.43;;;6.72;;
20535;SDS011;10426;49.420;8.390;2024-03-02T09:19:58;6.53;;;5.93;;
20535;SDS011;10426;49.420;8.390;2024-03-02T09:22:24;7.15;;;6.45;;
20535;SDS011;10426;49.420;8.390;2024-03-02T09:24:52;6.10;;;5.60;;
20535;SDS011;10426;49.420;8.390;2024-03-02T09:27:19;6.15;;;5.60;;
20535;SDS011;10426;49.420;8.390;2024-03-02T09:29:45;5.88;;;5.38;;
20535;SDS011;10426;49.420;8.390;2024-03-02T09:32:12;5.72;;;5.25;;
20535;SDS011;10426;49.420;8.390;2024-03-02T09:34:39;5.95;;;5.45;;
20535;SDS011;10426;49.420;8.390;2024-03-02T09:37:06;5.70;;;5.20;;
20535;SDS011;10426;49.420;8.390;2024-03-02T09:39:33;5.90;;;5.40;;
20535;SDS011;10426;49.420;8.390;2024-03-02T09:42:01;5.65;;;5.10;;
20535;SDS011;10426;49.420;8.390;2024-03-02T09:44:28;6.20;;;5.10;;
20535;SDS011;10426;49.420;8.390;2024-03-02T09:46:54;5.40;;;4.90;;
20535;SDS011;10426;49.420;8.390;2024-03-02T09:49:21;5.35;;;4.95;;
20535;SDS011;10426;49.420;8.390;2024-03-02T09:51:48;5.53;;;5.03;;
20535;SDS011;10426;49.420;8.390;2024-03-02T09:54:15;5.00;;;4.60;;
20535;SDS011;10426;49.420;8.390;2024-03-02T09:56:42;5.70;;;5.10;;
20535;SDS011;10426;49.420;8.390;2024-03-02T09:59:10;5.23;;;4.83;;
20535;SDS011;10426;49.420;8.390;2024-03-02T10:01:38;5.60;;;5.20;;
20535;SDS011;10426;49.420;8.390;2024-03-02T10:04:05;5.53;;;5.00;;
20535;SDS011;10426;49.420;8.390;2024-03-02T10:06:32;5.30;;;4.90;;
20535;SDS011;10426;49.420;8.390;2024-03-02T10:08:58;5.68;;;5.10;;
20535;SDS011;10426;49.420;8.390;2024-03-02T10:11:25;5.78;;;5.28;;
20535;SDS011;10426;49.420;8.390;2024-03-02T10:14:03;5.93;;;5.43;;
20535;SDS011;10426;49.420;8.390;2024-03-02T10:16:31;5.82;;;5.22;;
20535;SDS011;10426;49.420;8.390;2024-03-02T10:18:58;5.53;;;5.03;;
20535;SDS011;10426;49.420;8.390;2024-03-02T10:21:24;5.22;;;4.72;;
20535;SDS011;10426;49.420;8.390;2024-03-02T10:23:51;5.78;;;5.18;;
20535;SDS011;10426;49.420;8.390;2024-03-02T10:26:18;5.10;;;4.70;;
20535;SDS011;10426;49.420;8.390;2024-03-02T10:28:46;4.87;;;4.47;;
20535;SDS011;10426;49.420;8.390;2024-03-02T10:31:13;5.13;;;4.72;;
20535;SDS011;10426;49.420;8.390;2024-03-02T10:33:41;5.43;;;4.97;;
20535;SDS011;10426;49.420;8.390;2024-03-02T10:36:08;5.20;;;4.70;;
20535;SDS011;10426;49.420;8.390;2024-03-02T10:38:34;5.47;;;5.07;;
20535;SDS011;10426;49.420;8.390;2024-03-02T10:41:01;5.40;;;4.90;;
20535;SDS011;10426;49.420;8.390;2024-03-02T10:43:29;5.35;;;4.95;;
20535;SDS011;10426;49.420;8.390;2024-03-02T10:45:56;5.07;;;4.65;;
20535;SDS011;10426;49.420;8.390;2024-03-02T10:48:23;5.43;;;4.93;;
20535;SDS011;10426;49.420;8.390;2024-03-02T10:50:53;5.10;;;4.70;;
20535;SDS011;10426;49.420;8.390;2024-03-02T10:53:20;5.15;;;4.75;;
20535;SDS011;10426;49.420;8.390;2024-03-02T10:55:46;6.00;;;4.88;;
20535;SDS011;10426;49.420;8.390;2024-03-02T10:58:17;5.28;;;4.88;;
20535;SDS011;10426;49.420;8.390;2024-03-02T11:00:45;5.10;;;4.70;;
20535;SDS011;10426;49.420;8.390;2024-03-02T11:03:12;5.18;;;4.78;;
20535;SDS011;10426;49.420;8.390;2024-03-02T11:05:40;4.87;;;4.47;;
20535;SDS011;10426;49.420;8.390;2024-03-02T11:08:10;4.82;;;4.43;;
20535;SDS011;10426;49.420;8.390;2024-03-02T11:10:41;4.60;;;4.30;;
20535;SDS011;10426;49.420;8.390;2024-03-02T11:13:08;4.55;;;4.15;;
20535;SDS011;10426;49.420;8.390;2024-03-02T11:15:35;4.70;;;4.25;;
20535;SDS011;10426;49.420;8.390;2024-03-02T11:18:03;4.87;;;4.37;;
20535;SDS011;10426;49.420;8.390;2024-03-02T11:20:33;4.55;;;4.25;;
20535;SDS011;10426;49.420;8.390;2024-03-02T11:23:04;4.00;;;3.70;;
20535;SDS011;10426;49.420;8.390;2024-03-02T11:25:32;5.57;;;5.07;;
20535;SDS011;10426;49.420;8.390;2024-03-02T11:27:59;5.73;;;4.90;;
20535;SDS011;10426;49.420;8.390;2024-03-02T11:33:11;4.40;;;4.05;;
20535;SDS011;10426;49.420;8.390;2024-03-02T11:35:38;3.50;;;3.30;;
20535;SDS011;10426;49.420;8.390;2024-03-02T11:38:08;3.30;;;3.10;;
20535;SDS011;10426;49.420;8.390;2024-03-02T11:40:36;4.70;;;3.50;;
20535;SDS011;10426;49.420;8.390;2024-03-02T11:43:05;3.93;;;3.63;;
20535;SDS011;10426;49.420;8.390;2024-03-02T11:45:33;3.38;;;3.10;;
20535;SDS011;10426;49.420;8.390;2024-03-02T11:48:00;3.42;;;3.22;;
20535;SDS011;10426;49.420;8.390;2024-03-02T11:50:28;3.30;;;3.10;;
20535;SDS011;10426;49.420;8.390;2024-03-02T11:52:55;2.95;;;2.75;;
20535;SDS011;10426;49.420;8.390;2024-03-02T11:55:22;2.92;;;2.72;;
20535;SDS011;10426;49.420;8.390;2024-03-02T11:57:50;2.50;;;2.40;;
20535;SDS011;10426;49.420;8.390;2024-03-02T12:00:18;2.38;;;2.28;;
20535;SDS011;10426;49.420;8.390;2024-03-02T12:02:45;2.10;;;2.00;;
20535;SDS011;10426;49.420;8.390;2024-03-02T12:05:14;2.10;;;2.00;;
20535;SDS011;10426;49.420;8.390;2024-03-02T12:07:41;2.50;;;2.30;;
20535;SDS011;10426;49.420;8.390;2024-03-02T12:10:09;2.00;;;1.80;;
20535;SDS011;10426;49.420;8.390;2024-03-02T12:12:35;1.60;;;1.60;;
20535;SDS011;10426;49.420;8.390;2024-03-02T12:15:04;1.70;;;1.60;;
20535;SDS011;10426;49.420;8.390;2024-03-02T12:17:31;1.90;;;1.80;;
20535;SDS011;10426;49.420;8.390;2024-03-02T12:19:58;2.75;;;1.60;;
20535;SDS011;10426;49.420;8.390;2024-03-02T12:22:29;1.55;;;1.50;;
20535;SDS011;10426;49.420;8.390;2024-03-02T12:24:55;2.90;;;1.50;;
20535;SDS011;10426;49.420;8.390;2024-03-02T12:27:22;1.90;;;1.80;;
20535;SDS011;10426;49.420;8.390;2024-03-02T12:29:48;1.90;;;1.80;;
20535;SDS011;10426;49.420;8.390;2024-03-02T12:32:16;1.90;;;1.80;;
20535;SDS011;10426;49.420;8.390;2024-03-02T12:34:46;1.60;;;1.50;;
20535;SDS011;10426;49.420;8.390;2024-03-02T12:37:12;1.60;;;1.60;;
20535;SDS011;10426;49.420;8.390;2024-03-02T12:39:39;1.50;;;1.50;;
20535;SDS011;10426;49.420;8.390;2024-03-02T12:42:06;2.30;;;1.50;;
20535;SDS011;10426;49.420;8.390;2024-03-02T12:44:33;1.47;;;1.20;;
20535;SDS011;10426;49.420;8.390;2024-03-02T12:46:59;1.58;;;1.48;;
20535;SDS011;10426;49.420;8.390;2024-03-02T12:49:27;1.70;;;1.60;;
20535;SDS011;10426;49.420;8.390;2024-03-02T12:51:56;1.30;;;1.20;;
20535;SDS011;10426;49.420;8.390;2024-03-02T12:54:23;1.30;;;1.30;;
20535;SDS011;10426;49.420;8.390;2024-03-02T12:56:50;1.27;;;1.20;;
20535;SDS011;10426;49.420;8.390;2024-03-02T12:59:19;2.17;;;1.40;;
20535;SDS011;10426;49.420;8.390;2024-03-02T13:01:50;10.05;;;2.47;;
20535;SDS011;10426;49.420;8.390;2024-03-02T13:04:16;11.05;;;2.67;;
20535;SDS011;10426;49.420;8.390;2024-03-02T13:06:44;1.70;;;1.60;;
20535;SDS011;10426;49.420;8.390;2024-03-02T13:09:11;1.48;;;1.38;;
20535;SDS011;10426;49.420;8.390;2024-03-02T13:11:40;2.05;;;1.88;;
20535;SDS011;10426;49.420;8.390;2024-03-02T13:14:06;1.65;;;1.30;;
20535;SDS011;10426;49.420;8.390;2024-03-02T13:16:37;5.03;;;1.58;;
20535;SDS011;10426;49.420;8.390;2024-03-02T13:19:04;19.40;;;3.58;;
20535;SDS011;10426;49.420;8.390;2024-03-02T13:21:33;16.43;;;2.63;;
20535;SDS011;10426;49.420;8.390;2024-03-02T13:24:01;4.03;;;1.23;;
20535;SDS011;10426;49.420;8.390;2024-03-02T13:26:28;1.25;;;1.20;;
20535;SDS011;10426;49.420;8.390;2024-03-02T13:28:55;3.20;;;1.10;;
20535;SDS011;10426;49.420;8.390;2024-03-02T13:31:22;1.85;;;1.42;;
20535;SDS011;10426;49.420;8.390;2024-03-02T13:33:48;3.80;;;1.35;;
20535;SDS011;10426;49.420;8.390;2024-03-02T13:36:15;3.38;;;1.20;;
20535;SDS011;10426;49.420;8.390;2024-03-02T13:38:42;0.90;;;0.90;;
20535;SDS011;10426;49.420;8.390;2024-03-02T13:41:10;1.30;;;1.00;;
20535;SDS011;10426;49.420;8.390;2024-03-02T13:43:37;2.40;;;1.30;;
20535;SDS011;10426;49.420;8.390;2024-03-02T13:46:04;1.50;;;1.40;;
20535;SDS011;10426;49.420;8.390;2024-03-02T13:48:31;1.00;;;1.00;;
20535;SDS011;10426;49.420;8.390;2024-03-02T13:50:58;0.70;;;0.70;;
20535;SDS011;10426;49.420;8.390;2024-03-02T13:53:25;4.73;;;3.73;;
20535;SDS011;10426;49.420;8.390;2024-03-02T13:55:51;2.00;;;1.90;;
20535;SDS011;10426;49.420;8.390;2024-03-02T13:58:20;2.63;;;2.53;;
20535;SDS011;10426;49.420;8.390;2024-03-02T14:00:47;2.83;;;2.15;;
20535;SDS011;10426;49.420;8.390;2024-03-02T14:03:13;2.10;;;1.80;;
20535;SDS011;10426;49.420;8.390;2024-03-02T14:05:40;2.03;;;1.93;;
20535;SDS011;10426;49.420;8.390;2024-03-02T14:08:07;6.90;;;2.55;;
20535;SDS011;10426;49.420;8.390;2024-03-02T14:10:34;2.80;;;2.60;;
20535;SDS011;10426;49.420;8.390;2024-03-02T14:13:01;3.60;;;2.75;;
20535;SDS011;10426;49.420;8.390;2024-03-02T14:15:29;2.80;;;2.67;;
20535;SDS011;10426;49.420;8.390;2024-03-02T14:17:56;2.90;;;2.70;;
20535;SDS011;10426;49.420;8.390;2024-03-02T14:20:23;6.33;;;2.60;;
20535;SDS011;10426;49.420;8.390;2024-03-02T14:22:49;2.33;;;2.22;;
20535;SDS011;10426;49.420;8.390;2024-03-02T14:25:16;2.53;;;2.42;;
20535;SDS011;10426;49.420;8.390;2024-03-02T14:27:44;3.35;;;2.05;;
20535;SDS011;10426;49.420;8.390;2024-03-02T14:30:12;2.30;;;2.20;;
20535;SDS011;10426;49.420;8.390;2024-03-02T14:32:40;2.10;;;2.00;;
20535;SDS011;10426;49.420;8.390;2024-03-02T14:35:07;2.08;;;1.98;;
20535;SDS011;10426;49.420;8.390;2024-03-02T14:37:36;2.17;;;2.08;;
20535;SDS011;10426;49.420;8.390;2024-03-02T14:40:03;3.00;;;2.20;;
20535;SDS011;10426;49.420;8.390;2024-03-02T14:42:32;2.00;;;2.00;;